createdAt,value
2019-01-30T00:01:51.740Z,41.05
2019-01-30T00:04:21.375Z,39.30
2019-01-30T00:06:50.614Z,41.97
2019-01-30T00:09:19.932Z,39.53
2019-01-30T00:11:49.843Z,36.10
2019-01-30T00:14:20.531Z,43.60
2019-01-30T00:16:49.578Z,41.57
2019-01-30T00:19:18.548Z,39.50
2019-01-30T00:21:47.696Z,47.10
2019-01-30T00:24:17.118Z,49.30
2019-01-30T00:26:46.999Z,56.13
2019-01-30T00:29:16.899Z,50.17
2019-01-30T00:31:46.605Z,51.73
2019-01-30T00:34:16.474Z,57.30
2019-01-30T00:36:45.891Z,55.73
2019-01-30T00:39:15.925Z,54.45
2019-01-30T00:41:45.236Z,57.13
2019-01-30T00:44:15.211Z,58.85
2019-01-30T00:46:45.085Z,61.28
2019-01-30T00:49:15.144Z,60.35
2019-01-30T00:51:44.747Z,55.13
2019-01-30T00:54:14.125Z,59.88
2019-01-30T00:56:43.610Z,61.50
2019-01-30T00:59:12.727Z,60.07
2019-01-30T01:01:42.006Z,60.57
2019-01-30T01:04:11.127Z,63.37
2019-01-30T01:06:40.675Z,69.75
2019-01-30T01:09:10.568Z,67.40
2019-01-30T01:11:39.702Z,72.30
2019-01-30T01:14:09.558Z,75.78
2019-01-30T01:16:39.951Z,74.23
2019-01-30T01:19:09.605Z,79.62
2019-01-30T01:21:39.576Z,88.33
2019-01-30T01:26:51.182Z,106.10
2019-01-30T01:29:20.493Z,106.80
2019-01-30T01:31:50.396Z,104.45
2019-01-30T01:34:19.827Z,105.20
2019-01-30T01:36:49.136Z,104.47
2019-01-30T01:39:19.143Z,103.87
2019-01-30T01:41:49.066Z,89.65
2019-01-30T01:44:19.103Z,98.80
2019-01-30T01:46:48.751Z,88.75
2019-01-30T01:49:18.064Z,95.67
2019-01-30T01:51:47.571Z,93.33
2019-01-30T01:54:17.100Z,88.03
2019-01-30T01:56:46.374Z,88.27
2019-01-30T01:59:16.334Z,82.97
2019-01-30T02:01:45.623Z,81.03
2019-01-30T02:04:14.972Z,78.80
2019-01-30T02:06:44.419Z,73.30
2019-01-30T02:09:14.051Z,70.37
2019-01-30T02:11:43.487Z,80.87
2019-01-30T02:14:13.378Z,80.07
2019-01-30T02:16:43.811Z,82.53
2019-01-30T02:19:13.225Z,66.73
2019-01-30T02:21:42.536Z,64.57
2019-01-30T02:24:12.689Z,58.87
2019-01-30T02:26:42.717Z,47.48
2019-01-30T02:29:12.720Z,36.93
2019-01-30T02:31:42.028Z,37.47
2019-01-30T02:34:11.401Z,40.37
2019-01-30T02:36:56.394Z,43.08
2019-01-30T02:39:26.005Z,33.20
2019-01-30T02:41:55.935Z,34.35
2019-01-30T02:44:25.832Z,32.00
2019-01-30T02:46:55.706Z,38.35
2019-01-30T02:49:25.255Z,32.90
2019-01-30T02:51:54.569Z,38.47
2019-01-30T02:54:24.455Z,32.90
2019-01-30T02:56:53.904Z,37.63
2019-01-30T02:59:23.198Z,36.80
2019-01-30T03:01:54.145Z,37.07
2019-01-30T03:04:47.297Z,43.77
2019-01-30T03:07:16.627Z,49.73
2019-01-30T03:09:46.523Z,50.55
2019-01-30T03:12:15.833Z,59.10
2019-01-30T03:14:45.256Z,52.17
2019-01-30T03:17:15.656Z,58.73
2019-01-30T03:19:44.966Z,65.13
2019-01-30T03:22:14.304Z,62.77
2019-01-30T03:24:44.128Z,62.73
2019-01-30T03:27:13.555Z,60.60
2019-01-30T03:29:43.594Z,62.45
2019-01-30T03:32:13.037Z,57.27
2019-01-30T03:34:42.464Z,57.53
2019-01-30T03:37:11.794Z,57.83
2019-01-30T03:39:41.371Z,55.40
2019-01-30T03:42:10.745Z,52.10
2019-01-30T03:44:40.070Z,57.33
2019-01-30T03:47:09.520Z,49.67
2019-01-30T03:49:38.870Z,50.70
2019-01-30T03:52:08.508Z,48.47
2019-01-30T03:54:38.079Z,44.07
2019-01-30T03:57:07.709Z,40.28
2019-01-30T03:59:37.097Z,43.33
2019-01-30T04:02:06.599Z,36.70
2019-01-30T04:04:36.244Z,36.60
2019-01-30T04:07:05.838Z,34.47
2019-01-30T04:09:35.740Z,34.65
2019-01-30T04:12:05.154Z,34.67
2019-01-30T04:14:34.594Z,36.90
2019-01-30T04:17:05.319Z,34.90
2019-01-30T04:19:35.885Z,36.83
2019-01-30T04:22:05.417Z,34.48
2019-01-30T04:24:35.326Z,39.42
2019-01-30T04:27:04.832Z,37.50
2019-01-30T04:29:34.199Z,32.83
2019-01-30T04:32:03.709Z,33.17
2019-01-30T04:34:33.095Z,38.00
2019-01-30T04:37:02.583Z,38.50
2019-01-30T04:39:31.891Z,39.53
2019-01-30T04:42:01.228Z,35.07
2019-01-30T04:44:31.178Z,36.03
2019-01-30T04:47:00.491Z,36.43
2019-01-30T04:49:30.047Z,39.47
2019-01-30T04:51:59.426Z,35.97
2019-01-30T04:54:28.888Z,40.13
2019-01-30T04:56:58.985Z,39.40
2019-01-30T04:59:28.446Z,39.63
2019-01-30T05:01:57.774Z,37.27
2019-01-30T05:04:27.240Z,37.63
2019-01-30T05:06:56.536Z,35.77
2019-01-30T05:09:25.874Z,36.43
2019-01-30T05:11:57.812Z,38.30
2019-01-30T05:14:27.150Z,40.60
2019-01-30T05:16:57.263Z,41.90
2019-01-30T05:19:26.723Z,42.00
2019-01-30T05:21:57.066Z,47.00
2019-01-30T05:24:26.377Z,43.40
2019-01-30T05:26:55.715Z,42.00
2019-01-30T05:29:27.915Z,41.37
2019-01-30T05:32:01.382Z,42.50
2019-01-30T05:34:28.167Z,41.90
2019-01-30T05:36:57.479Z,38.83
2019-01-30T05:39:26.852Z,38.50
2019-01-30T05:41:56.197Z,44.83
2019-01-30T05:44:25.566Z,42.93
2019-01-30T05:46:55.508Z,38.78
2019-01-30T05:49:25.538Z,40.98
2019-01-30T05:51:55.013Z,40.57
2019-01-30T05:54:24.527Z,43.87
2019-01-30T05:56:54.857Z,43.30
2019-01-30T05:59:24.296Z,44.60
2019-01-30T06:01:53.597Z,43.13
2019-01-30T06:04:22.982Z,46.17
2019-01-30T06:06:52.295Z,39.73
2019-01-30T06:09:21.631Z,41.10
2019-01-30T06:11:52.658Z,44.30
2019-01-30T06:14:22.033Z,45.37
2019-01-30T06:16:51.330Z,53.00
2019-01-30T06:19:20.929Z,45.73
2019-01-30T06:21:51.142Z,47.62
2019-01-30T06:24:21.759Z,42.80
2019-01-30T06:26:51.079Z,48.87
2019-01-30T06:29:20.443Z,44.23
2019-01-30T06:31:49.935Z,47.53
2019-01-30T06:34:19.259Z,46.97
2019-01-30T06:36:48.604Z,46.13
2019-01-30T06:39:19.066Z,46.97
2019-01-30T06:41:48.670Z,50.90
2019-01-30T06:44:18.555Z,51.05
2019-01-30T06:46:48.586Z,48.28
2019-01-30T06:49:18.051Z,51.83
2019-01-30T06:51:47.975Z,50.30
2019-01-30T06:54:17.975Z,53.23
2019-01-30T06:56:47.290Z,55.47
2019-01-30T06:59:17.166Z,51.20
2019-01-30T07:01:46.539Z,54.23
2019-01-30T07:04:15.966Z,55.20
2019-01-30T07:06:45.257Z,55.00
2019-01-30T07:09:15.331Z,51.65
2019-01-30T07:11:44.819Z,54.97
2019-01-30T07:14:15.246Z,59.00
2019-01-30T07:16:44.583Z,59.83
2019-01-30T07:19:14.001Z,59.70
2019-01-30T07:21:44.002Z,67.10
2019-01-30T07:24:13.913Z,68.40
2019-01-30T07:26:43.599Z,68.10
2019-01-30T07:29:13.627Z,62.45
2019-01-30T07:31:46.882Z,60.80
2019-01-30T07:34:16.790Z,64.65
2019-01-30T07:36:46.708Z,60.65
2019-01-30T07:39:16.310Z,61.70
2019-01-30T07:41:45.755Z,65.57
2019-01-30T07:44:15.135Z,70.93
2019-01-30T07:46:44.505Z,70.20
2019-01-30T07:49:14.454Z,66.70
2019-01-30T07:51:43.887Z,67.90
2019-01-30T07:54:13.351Z,62.87
2019-01-30T07:56:43.459Z,69.07
2019-01-30T07:59:12.903Z,72.00
2019-01-30T08:01:42.788Z,70.37
2019-01-30T08:04:12.453Z,72.03
2019-01-30T08:06:42.774Z,72.27
2019-01-30T08:09:12.131Z,81.37
2019-01-30T08:11:44.139Z,81.00
2019-01-30T08:14:14.038Z,80.47
2019-01-30T08:16:43.967Z,77.82
2019-01-30T08:19:13.858Z,72.75
2019-01-30T08:21:43.310Z,70.07
2019-01-30T08:24:12.739Z,81.73
2019-01-30T08:27:07.471Z,75.53
2019-01-30T08:29:37.639Z,77.55
2019-01-30T08:32:07.652Z,81.55
2019-01-30T08:34:37.734Z,82.05
2019-01-30T08:37:07.585Z,82.70
2019-01-30T08:39:37.459Z,86.05
2019-01-30T08:42:06.809Z,83.73
2019-01-30T08:44:36.119Z,92.83
2019-01-30T08:47:06.076Z,79.75
2019-01-30T08:49:35.857Z,80.77
2019-01-30T08:52:05.205Z,87.23
2019-01-30T08:54:34.653Z,88.00
2019-01-30T08:57:04.597Z,90.40
2019-01-30T08:59:34.555Z,91.22
2019-01-30T09:02:04.670Z,93.35
2019-01-30T09:04:34.652Z,90.77
2019-01-30T09:07:04.597Z,95.45
2019-01-30T09:09:34.970Z,91.80
2019-01-30T09:12:06.651Z,96.02
2019-01-30T09:14:36.561Z,97.70
2019-01-30T09:17:08.680Z,100.80
2019-01-30T09:19:37.383Z,101.87
2019-01-30T09:22:07.255Z,99.20
2019-01-30T09:24:37.242Z,101.05
2019-01-30T09:27:07.996Z,102.07
2019-01-30T09:29:37.895Z,108.50
2019-01-30T09:32:07.416Z,106.37
2019-01-30T09:34:37.291Z,102.85
2019-01-30T09:37:06.814Z,104.45
2019-01-30T09:39:36.691Z,99.77
2019-01-30T09:42:06.032Z,102.57
2019-01-30T09:44:35.348Z,110.20
2019-01-30T09:47:05.249Z,103.45
2019-01-30T09:49:35.129Z,104.47
2019-01-30T09:52:05.065Z,113.37
2019-01-30T09:54:35.076Z,104.78
2019-01-30T09:57:04.358Z,103.97
2019-01-30T09:59:34.229Z,110.92
2019-01-30T10:02:04.412Z,112.15
2019-01-30T10:04:34.390Z,108.35
2019-01-30T10:07:04.261Z,107.60
2019-01-30T10:09:34.202Z,116.28
2019-01-30T10:12:04.359Z,115.37
2019-01-30T10:14:34.339Z,114.47
2019-01-30T10:17:04.495Z,117.70
2019-01-30T10:19:33.794Z,122.83
2019-01-30T10:22:03.799Z,118.08
2019-01-30T10:24:33.681Z,116.82
2019-01-30T10:27:03.587Z,107.43
2019-01-30T10:29:34.343Z,111.20
2019-01-30T10:32:04.278Z,114.45
2019-01-30T10:34:34.167Z,112.12
2019-01-30T10:37:06.022Z,121.10
2019-01-30T10:39:35.913Z,116.55
2019-01-30T10:42:05.811Z,111.45
2019-01-30T10:44:35.723Z,118.77
2019-01-30T10:47:05.612Z,116.00
2019-01-30T10:49:35.536Z,104.47
2019-01-30T10:52:05.419Z,116.75
2019-01-30T10:54:35.288Z,108.17
2019-01-30T10:57:05.188Z,106.75
2019-01-30T10:59:35.151Z,114.95
2019-01-30T11:02:05.076Z,116.55
2019-01-30T11:04:34.959Z,114.05
2019-01-30T11:07:04.868Z,118.85
2019-01-30T11:09:34.802Z,108.15
2019-01-30T11:12:04.705Z,107.60
2019-01-30T11:14:34.587Z,108.67
2019-01-30T11:17:04.544Z,116.08
2019-01-30T11:19:34.500Z,108.85
2019-01-30T11:22:04.388Z,112.75
2019-01-30T11:24:34.525Z,105.52
2019-01-30T11:27:04.434Z,105.30
2019-01-30T11:29:34.403Z,101.35
2019-01-30T11:32:05.247Z,99.97
2019-01-30T11:34:35.251Z,94.03
2019-01-30T11:37:05.169Z,88.80
2019-01-30T11:39:35.247Z,94.22
2019-01-30T11:42:05.287Z,93.20
2019-01-30T11:44:35.281Z,101.80
2019-01-30T11:47:05.307Z,103.10
2019-01-30T11:49:35.235Z,101.33
2019-01-30T11:52:05.356Z,94.05
2019-01-30T11:54:38.791Z,97.22
2019-01-30T11:57:06.806Z,96.47
2019-01-30T11:59:36.720Z,99.47
2019-01-30T12:02:06.643Z,95.22
2019-01-30T12:04:36.570Z,83.97
2019-01-30T12:07:06.467Z,86.95
2019-01-30T12:09:36.448Z,87.42
2019-01-30T12:12:06.331Z,90.97
2019-01-30T12:14:36.456Z,81.45
2019-01-30T12:17:06.338Z,85.32
2019-01-30T12:19:36.292Z,82.33
2019-01-30T12:22:06.414Z,87.53
2019-01-30T12:24:36.400Z,83.67
2019-01-30T12:27:06.386Z,91.55
2019-01-30T12:29:36.278Z,90.75
2019-01-30T12:32:06.138Z,86.22
2019-01-30T12:34:37.103Z,86.50
2019-01-30T12:37:07.247Z,95.40
2019-01-30T12:39:40.503Z,93.70
2019-01-30T12:42:16.579Z,80.30
2019-01-30T12:44:46.524Z,94.42
2019-01-30T12:47:19.945Z,85.42
2019-01-30T12:49:48.518Z,85.10
2019-01-30T12:52:18.503Z,86.05
2019-01-30T12:54:48.457Z,89.30
2019-01-30T12:57:18.343Z,86.45
2019-01-30T12:59:48.336Z,80.50
2019-01-30T13:02:18.423Z,85.70
2019-01-30T13:04:48.386Z,85.45
2019-01-30T13:07:18.679Z,84.03
2019-01-30T13:09:49.019Z,81.17
2019-01-30T13:12:19.442Z,88.20
2019-01-30T13:14:49.791Z,80.05
2019-01-30T13:17:19.823Z,83.80
2019-01-30T13:19:49.771Z,81.55
2019-01-30T13:22:19.984Z,82.25
2019-01-30T13:24:49.934Z,79.25
2019-01-30T13:27:19.928Z,82.12
2019-01-30T13:29:49.920Z,85.05
2019-01-30T13:32:19.818Z,93.97
2019-01-30T13:34:50.583Z,87.50
2019-01-30T13:37:20.567Z,91.50
2019-01-30T13:39:50.444Z,98.65
2019-01-30T13:42:20.376Z,93.17
2019-01-30T13:44:50.313Z,89.80
2019-01-30T13:47:20.195Z,89.45
2019-01-30T13:49:50.279Z,92.72
2019-01-30T13:52:20.151Z,91.50
2019-01-30T13:54:50.183Z,90.25
2019-01-30T13:57:20.099Z,98.03
2019-01-30T13:59:50.056Z,98.47
2019-01-30T14:02:20.200Z,98.17
2019-01-30T14:04:59.297Z,100.80
2019-01-30T14:07:23.693Z,97.27
2019-01-30T14:09:53.688Z,101.50
2019-01-30T14:12:23.675Z,97.25
2019-01-30T14:14:53.684Z,108.75
2019-01-30T14:17:23.706Z,104.72
2019-01-30T14:19:53.659Z,101.97
2019-01-30T14:22:23.702Z,103.32
2019-01-30T14:24:53.657Z,103.60
2019-01-30T14:27:24.660Z,100.18
2019-01-30T14:29:58.269Z,103.45
2019-01-30T14:32:26.298Z,109.20
2019-01-30T14:34:57.363Z,98.47
2019-01-30T14:37:27.417Z,101.15
2019-01-30T14:39:57.567Z,102.10
2019-01-30T14:42:27.606Z,100.10
2019-01-30T14:44:57.748Z,100.27
2019-01-30T14:47:27.698Z,101.40
2019-01-30T14:49:57.052Z,94.57
2019-01-30T14:52:27.002Z,103.55
2019-01-30T14:54:56.287Z,96.85
2019-01-30T14:57:26.208Z,101.40
2019-01-30T14:59:56.225Z,90.28
2019-01-30T15:02:26.124Z,86.00
2019-01-30T15:04:57.249Z,94.45
2019-01-30T15:07:29.147Z,96.28
2019-01-30T15:09:58.658Z,78.80
2019-01-30T15:12:28.521Z,79.97
2019-01-30T15:14:58.630Z,78.37
2019-01-30T15:17:28.517Z,72.70
2019-01-30T15:19:58.414Z,76.05
2019-01-30T15:22:28.503Z,77.10
2019-01-30T15:24:58.370Z,83.67
2019-01-30T15:27:27.814Z,78.83
2019-01-30T15:29:57.700Z,78.85
2019-01-30T15:32:27.612Z,79.00
2019-01-30T15:34:58.050Z,76.70
2019-01-30T15:37:27.576Z,83.77
2019-01-30T15:39:57.469Z,91.75
2019-01-30T15:42:26.855Z,96.00
2019-01-30T15:44:56.272Z,93.60
2019-01-30T15:47:26.217Z,92.10
2019-01-30T15:49:55.515Z,87.83
2019-01-30T15:52:24.991Z,84.70
2019-01-30T15:54:54.402Z,82.47
2019-01-30T15:57:24.786Z,83.03
2019-01-30T15:59:54.803Z,92.82
2019-01-30T16:02:24.191Z,86.23
2019-01-30T16:04:53.801Z,88.50
2019-01-30T16:07:23.481Z,85.40
2019-01-30T16:09:52.858Z,85.57
2019-01-30T16:12:22.344Z,82.67
2019-01-30T16:14:52.268Z,100.55
2019-01-30T16:17:21.645Z,110.40
2019-01-30T16:19:51.052Z,113.93
2019-01-30T16:22:20.434Z,119.07
2019-01-30T16:24:49.732Z,123.53
2019-01-30T16:27:19.072Z,124.33
2019-01-30T16:29:48.635Z,131.60
2019-01-30T16:32:18.022Z,149.57
2019-01-30T16:34:47.530Z,170.83
2019-01-30T16:37:16.855Z,182.97
2019-01-30T16:39:46.279Z,191.60
2019-01-30T16:42:15.842Z,196.37
2019-01-30T16:44:46.759Z,207.07
2019-01-30T16:47:16.114Z,213.40
2019-01-30T16:49:48.427Z,214.77
2019-01-30T16:52:19.446Z,200.87
2019-01-30T16:54:48.751Z,183.87
2019-01-30T16:57:18.111Z,176.97
2019-01-30T16:59:47.470Z,178.23
2019-01-30T17:02:16.964Z,171.50
2019-01-30T17:04:46.372Z,163.40
2019-01-30T17:07:15.685Z,162.73
2019-01-30T17:09:45.644Z,167.35
2019-01-30T17:12:15.009Z,172.27
2019-01-30T17:14:44.898Z,172.05
2019-01-30T17:17:14.774Z,182.65
2019-01-30T17:19:44.225Z,179.80
2019-01-30T17:22:14.792Z,171.40
2019-01-30T17:24:44.693Z,172.35
2019-01-30T17:27:14.080Z,166.57
2019-01-30T17:29:45.115Z,162.27
2019-01-30T17:32:15.040Z,166.82
2019-01-30T17:34:44.464Z,171.30
2019-01-30T17:37:13.737Z,175.20
2019-01-30T17:39:43.762Z,170.95
2019-01-30T17:42:14.030Z,165.40
2019-01-30T17:44:43.960Z,189.93
2019-01-30T17:47:13.331Z,195.27
2019-01-30T17:49:43.296Z,193.35
2019-01-30T17:52:13.482Z,186.45
2019-01-30T17:54:42.858Z,205.03
2019-01-30T17:57:12.843Z,205.98
2019-01-30T17:59:43.060Z,195.75
2019-01-30T18:02:12.500Z,191.93
2019-01-30T18:04:42.638Z,208.40
2019-01-30T18:07:12.616Z,196.78
2019-01-30T18:09:41.922Z,208.80
2019-01-30T18:12:11.828Z,217.47
2019-01-30T18:14:41.707Z,195.82
2019-01-30T18:17:11.678Z,168.75
2019-01-30T18:19:41.156Z,172.68
2019-01-30T18:22:10.574Z,167.47
2019-01-30T18:24:39.932Z,175.97
2019-01-30T18:27:09.878Z,165.70
2019-01-30T18:29:39.171Z,162.13
2019-01-30T18:32:09.213Z,171.98
2019-01-30T18:34:38.534Z,170.27
2019-01-30T18:37:08.506Z,180.55
2019-01-30T18:39:38.379Z,182.25
2019-01-30T18:42:08.356Z,185.10
2019-01-30T18:44:38.578Z,176.47
2019-01-30T18:47:08.010Z,167.93
2019-01-30T18:49:37.894Z,166.30
2019-01-30T18:52:07.265Z,166.57
2019-01-30T18:54:36.724Z,179.70
2019-01-30T18:57:06.571Z,172.40
2019-01-30T18:59:36.534Z,166.57
2019-01-30T19:02:06.439Z,177.35
2019-01-30T19:04:36.409Z,174.93
2019-01-30T19:07:05.745Z,182.03
2019-01-30T19:09:35.043Z,190.40
2019-01-30T19:12:05.101Z,188.18
2019-01-30T19:14:34.435Z,179.00
2019-01-30T19:17:03.744Z,186.63
2019-01-30T19:19:33.103Z,167.00
2019-01-30T19:22:03.016Z,177.45
2019-01-30T19:24:32.890Z,176.42
2019-01-30T19:27:02.195Z,177.80
2019-01-30T19:29:32.166Z,176.65
2019-01-30T19:32:02.051Z,172.65
2019-01-30T19:34:31.944Z,172.15
2019-01-30T19:37:03.550Z,170.60
2019-01-30T19:39:33.342Z,172.22
2019-01-30T19:42:03.370Z,187.80
2019-01-30T19:44:33.355Z,191.60
2019-01-30T19:47:04.280Z,172.68
2019-01-30T19:49:36.615Z,159.90
2019-01-30T19:52:05.949Z,156.87
2019-01-30T19:54:39.234Z,159.70
2019-01-30T19:57:09.247Z,160.37
2019-01-30T19:59:38.628Z,154.47
2019-01-30T20:02:08.586Z,158.00
2019-01-30T20:04:38.492Z,153.97
2019-01-30T20:07:14.406Z,148.57
2019-01-30T20:09:39.482Z,153.40
2019-01-30T20:12:09.664Z,143.90
2019-01-30T20:14:39.635Z,147.00
2019-01-30T20:17:10.027Z,147.55
2019-01-30T20:19:40.012Z,143.95
2019-01-30T20:22:09.494Z,140.93
2019-01-30T20:24:39.679Z,137.07
2019-01-30T20:27:09.675Z,119.70
2019-01-30T20:29:39.629Z,128.95
2019-01-30T20:32:09.527Z,145.85
2019-01-30T20:34:39.596Z,135.72
2019-01-30T20:37:08.875Z,127.43
2019-01-30T20:39:38.820Z,134.72
2019-01-30T20:42:08.758Z,127.32
2019-01-30T20:44:38.747Z,125.73
2019-01-30T20:47:08.909Z,145.33
2019-01-30T20:49:38.260Z,138.53
2019-01-30T20:52:07.593Z,142.93
2019-01-30T20:54:36.992Z,142.73
2019-01-30T20:57:06.411Z,150.70
2019-01-30T20:59:36.298Z,147.35
2019-01-30T21:02:06.212Z,135.82
2019-01-30T21:04:35.615Z,137.57
2019-01-30T21:07:05.514Z,135.78
2019-01-30T21:09:35.464Z,115.50
2019-01-30T21:12:05.446Z,111.75
2019-01-30T21:14:35.500Z,109.32
2019-01-30T21:17:05.004Z,116.80
2019-01-30T21:19:34.884Z,120.80
2019-01-30T21:22:04.920Z,109.75
2019-01-30T21:24:35.151Z,109.00
2019-01-30T21:27:04.453Z,105.57
2019-01-30T21:29:34.421Z,107.30
2019-01-30T21:32:03.758Z,101.33
2019-01-30T21:34:33.646Z,97.12
2019-01-30T21:37:03.531Z,100.55
2019-01-30T21:39:33.050Z,110.17
2019-01-30T21:42:03.338Z,107.57
2019-01-30T21:44:33.281Z,119.10
2019-01-30T21:47:03.175Z,120.22
2019-01-30T21:49:32.567Z,116.53
2019-01-30T21:52:02.548Z,103.05
2019-01-30T21:54:32.564Z,109.00
2019-01-30T21:57:02.186Z,105.43
2019-01-30T21:59:32.265Z,111.55
2019-01-30T22:02:08.383Z,118.27
2019-01-30T22:04:32.702Z,110.93
2019-01-30T22:07:01.993Z,113.50
2019-01-30T22:09:31.896Z,105.45
2019-01-30T22:12:01.922Z,108.45
2019-01-30T22:14:32.034Z,113.17
2019-01-30T22:17:01.919Z,106.85
2019-01-30T22:19:32.568Z,111.83
2019-01-30T22:22:02.676Z,114.65
2019-01-30T22:24:32.087Z,115.77
2019-01-30T22:27:02.015Z,110.63
2019-01-30T22:29:31.330Z,119.73
2019-01-30T22:32:00.748Z,120.80
2019-01-30T22:34:30.219Z,113.90
2019-01-30T22:37:00.112Z,119.90
2019-01-30T22:39:30.119Z,122.00
2019-01-30T22:42:02.316Z,121.97
2019-01-30T22:44:30.491Z,120.87
2019-01-30T22:47:00.429Z,126.00
2019-01-30T22:49:30.288Z,129.50
2019-01-30T22:51:59.632Z,133.87
2019-01-30T22:54:29.226Z,131.40
2019-01-30T22:56:58.715Z,139.53
2019-01-30T22:59:28.603Z,140.62
2019-01-30T23:01:58.767Z,142.20
2019-01-30T23:04:37.132Z,132.73
2019-01-30T23:07:09.864Z,136.20
2019-01-30T23:10:15.573Z,137.20
2019-01-30T23:13:08.077Z,136.83
2019-01-30T23:15:46.695Z,144.77
2019-01-30T23:18:31.925Z,136.30
2019-01-30T23:21:16.575Z,133.60
2019-01-30T23:24:21.711Z,138.03
2019-01-30T23:27:00.788Z,137.62
2019-01-30T23:29:50.028Z,130.53
2019-01-30T23:32:32.192Z,114.57
2019-01-30T23:35:38.357Z,124.67
2019-01-30T23:38:21.628Z,124.90
2019-01-30T23:40:57.774Z,124.80
2019-01-30T23:43:42.488Z,131.27
2019-01-30T23:46:27.289Z,121.75
2019-01-30T23:49:19.115Z,126.10
2019-01-30T23:51:52.138Z,129.32
2019-01-30T23:54:40.052Z,126.05
2019-01-30T23:57:17.464Z,133.57
